Hebron, Louisiana
Current Conditions -  °F | °C
As of 4:15 PM on Wednesday 28 Jan 2015 (Local Time) from KRSN Reporting Station
Clear Clear  
Wind Chill: 73°   Ceiling: Unl
Heat Index: 73°   Visibility: 10mi
Dew Point: 38°   Wind: 9mph
Humidity: 28%   Direction: 180°S
Pressure: 30.15"   Gusts: NA
Location:  32.0547°N, 92.4144°W
Report Text: KRSN 282215Z AUTO 18008KT 10SM CLR 23/03 A3015 RMK AO2 T02270034
Loading
Personal Weather Stations






























Interactive Weather Map New forecast layout! Learn more

10-Day Weather Forecast

Advertisements
Track Severe Weather on mobile